sensor_id;sensor_type;location;lat;lon;timestamp;P1;durP1;ratioP1;P2;durP2;ratioP2
12658;SDS011;6394;52.488;13.386;2022-09-16T00:01:12;3.23;;;0.63;;
12658;SDS011;6394;52.488;13.386;2022-09-16T00:03:39;1.20;;;0.37;;
12658;SDS011;6394;52.488;13.386;2022-09-16T00:06:14;3.00;;;0.50;;
12658;SDS011;6394;52.488;13.386;2022-09-16T00:08:42;1.20;;;0.60;;
12658;SDS011;6394;52.488;13.386;2022-09-16T00:11:10;2.93;;;0.50;;
12658;SDS011;6394;52.488;13.386;2022-09-16T00:13:38;2.33;;;0.63;;
12658;SDS011;6394;52.488;13.386;2022-09-16T00:16:05;3.13;;;0.57;;
12658;SDS011;6394;52.488;13.386;2022-09-16T00:18:33;1.20;;;0.50;;
12658;SDS011;6394;52.488;13.386;2022-09-16T00:21:00;1.87;;;0.30;;
12658;SDS011;6394;52.488;13.386;2022-09-16T00:23:29;4.00;;;0.60;;
12658;SDS011;6394;52.488;13.386;2022-09-16T00:25:57;2.87;;;0.67;;
12658;SDS011;6394;52.488;13.386;2022-09-16T00:28:24;1.63;;;0.20;;
12658;SDS011;6394;52.488;13.386;2022-09-16T00:30:52;2.17;;;0.50;;
12658;SDS011;6394;52.488;13.386;2022-09-16T00:33:19;1.33;;;0.20;;
12658;SDS011;6394;52.488;13.386;2022-09-16T00:35:46;0.73;;;0.37;;
12658;SDS011;6394;52.488;13.386;2022-09-16T00:38:14;1.80;;;0.40;;
12658;SDS011;6394;52.488;13.386;2022-09-16T00:40:46;1.30;;;0.33;;
12658;SDS011;6394;52.488;13.386;2022-09-16T00:43:14;3.83;;;0.63;;
12658;SDS011;6394;52.488;13.386;2022-09-16T00:45:42;2.30;;;0.70;;
12658;SDS011;6394;52.488;13.386;2022-09-16T00:48:11;1.53;;;0.47;;
12658;SDS011;6394;52.488;13.386;2022-09-16T00:50:42;1.90;;;0.53;;
12658;SDS011;6394;52.488;13.386;2022-09-16T00:53:11;0.60;;;0.50;;
12658;SDS011;6394;52.488;13.386;2022-09-16T00:55:40;2.17;;;0.73;;
12658;SDS011;6394;52.488;13.386;2022-09-16T00:58:12;1.50;;;0.53;;
12658;SDS011;6394;52.488;13.386;2022-09-16T01:00:42;2.17;;;0.53;;
12658;SDS011;6394;52.488;13.386;2022-09-16T01:03:09;1.97;;;0.60;;
12658;SDS011;6394;52.488;13.386;2022-09-16T01:05:36;1.23;;;0.60;;
12658;SDS011;6394;52.488;13.386;2022-09-16T01:08:04;1.17;;;0.43;;
12658;SDS011;6394;52.488;13.386;2022-09-16T01:10:31;1.67;;;0.40;;
12658;SDS011;6394;52.488;13.386;2022-09-16T01:12:59;2.80;;;0.70;;
12658;SDS011;6394;52.488;13.386;2022-09-16T01:15:30;3.03;;;0.60;;
12658;SDS011;6394;52.488;13.386;2022-09-16T01:18:03;3.53;;;0.40;;
12658;SDS011;6394;52.488;13.386;2022-09-16T01:23:26;2.33;;;0.73;;
12658;SDS011;6394;52.488;13.386;2022-09-16T01:26:02;1.60;;;0.47;;
12658;SDS011;6394;52.488;13.386;2022-09-16T01:28:48;1.50;;;0.67;;
12658;SDS011;6394;52.488;13.386;2022-09-16T01:31:22;0.57;;;0.43;;
12658;SDS011;6394;52.488;13.386;2022-09-16T01:33:54;2.60;;;0.80;;
12658;SDS011;6394;52.488;13.386;2022-09-16T01:36:34;2.70;;;0.60;;
12658;SDS011;6394;52.488;13.386;2022-09-16T01:39:06;5.30;;;1.10;;
12658;SDS011;6394;52.488;13.386;2022-09-16T01:41:38;4.97;;;0.87;;
12658;SDS011;6394;52.488;13.386;2022-09-16T01:44:10;2.87;;;0.77;;
12658;SDS011;6394;52.488;13.386;2022-09-16T01:46:43;2.43;;;0.73;;
12658;SDS011;6394;52.488;13.386;2022-09-16T01:49:13;5.77;;;1.00;;
12658;SDS011;6394;52.488;13.386;2022-09-16T01:51:43;3.67;;;0.70;;
12658;SDS011;6394;52.488;13.386;2022-09-16T01:54:12;2.80;;;0.70;;
12658;SDS011;6394;52.488;13.386;2022-09-16T01:56:45;1.93;;;0.90;;
12658;SDS011;6394;52.488;13.386;2022-09-16T01:59:14;3.70;;;1.57;;
12658;SDS011;6394;52.488;13.386;2022-09-16T02:01:47;2.27;;;0.87;;
12658;SDS011;6394;52.488;13.386;2022-09-16T02:04:16;4.07;;;1.37;;
12658;SDS011;6394;52.488;13.386;2022-09-16T02:06:44;3.40;;;0.67;;
12658;SDS011;6394;52.488;13.386;2022-09-16T02:09:13;2.00;;;0.80;;
12658;SDS011;6394;52.488;13.386;2022-09-16T02:11:41;2.97;;;0.57;;
12658;SDS011;6394;52.488;13.386;2022-09-16T02:14:13;2.60;;;1.13;;
12658;SDS011;6394;52.488;13.386;2022-09-16T02:16:42;4.33;;;1.13;;
12658;SDS011;6394;52.488;13.386;2022-09-16T02:19:14;2.90;;;1.13;;
12658;SDS011;6394;52.488;13.386;2022-09-16T02:21:42;4.07;;;1.23;;
12658;SDS011;6394;52.488;13.386;2022-09-16T02:24:12;5.33;;;1.27;;
12658;SDS011;6394;52.488;13.386;2022-09-16T02:26:45;3.20;;;0.90;;
12658;SDS011;6394;52.488;13.386;2022-09-16T02:29:15;3.80;;;1.20;;
12658;SDS011;6394;52.488;13.386;2022-09-16T02:31:43;2.60;;;1.30;;
12658;SDS011;6394;52.488;13.386;2022-09-16T02:34:11;3.10;;;1.20;;
12658;SDS011;6394;52.488;13.386;2022-09-16T02:36:41;4.17;;;1.40;;
12658;SDS011;6394;52.488;13.386;2022-09-16T02:39:10;3.27;;;1.17;;
12658;SDS011;6394;52.488;13.386;2022-09-16T02:41:39;2.70;;;1.03;;
12658;SDS011;6394;52.488;13.386;2022-09-16T02:44:07;2.20;;;1.40;;
12658;SDS011;6394;52.488;13.386;2022-09-16T02:46:36;3.80;;;1.43;;
12658;SDS011;6394;52.488;13.386;2022-09-16T02:49:07;2.97;;;1.10;;
12658;SDS011;6394;52.488;13.386;2022-09-16T02:51:37;3.33;;;1.20;;
12658;SDS011;6394;52.488;13.386;2022-09-16T02:54:09;6.77;;;2.00;;
12658;SDS011;6394;52.488;13.386;2022-09-16T02:56:38;5.23;;;1.53;;
12658;SDS011;6394;52.488;13.386;2022-09-16T02:59:06;2.10;;;1.20;;
12658;SDS011;6394;52.488;13.386;2022-09-16T03:01:37;4.37;;;1.07;;
12658;SDS011;6394;52.488;13.386;2022-09-16T03:04:05;6.53;;;1.20;;
12658;SDS011;6394;52.488;13.386;2022-09-16T03:06:32;4.90;;;1.87;;
12658;SDS011;6394;52.488;13.386;2022-09-16T03:09:00;3.27;;;1.20;;
12658;SDS011;6394;52.488;13.386;2022-09-16T03:11:38;4.63;;;1.60;;
12658;SDS011;6394;52.488;13.386;2022-09-16T03:14:11;3.57;;;1.23;;
12658;SDS011;6394;52.488;13.386;2022-09-16T03:16:44;4.63;;;1.67;;
12658;SDS011;6394;52.488;13.386;2022-09-16T03:19:13;3.50;;;1.73;;
12658;SDS011;6394;52.488;13.386;2022-09-16T03:21:45;3.53;;;1.10;;
12658;SDS011;6394;52.488;13.386;2022-09-16T03:24:15;4.50;;;1.40;;
12658;SDS011;6394;52.488;13.386;2022-09-16T03:26:49;2.50;;;1.33;;
12658;SDS011;6394;52.488;13.386;2022-09-16T03:29:23;4.97;;;1.70;;
12658;SDS011;6394;52.488;13.386;2022-09-16T03:31:53;6.80;;;1.60;;
12658;SDS011;6394;52.488;13.386;2022-09-16T03:34:25;5.60;;;1.67;;
12658;SDS011;6394;52.488;13.386;2022-09-16T03:36:55;4.70;;;1.60;;
12658;SDS011;6394;52.488;13.386;2022-09-16T03:39:25;5.60;;;2.20;;
12658;SDS011;6394;52.488;13.386;2022-09-16T03:41:53;4.20;;;1.80;;
12658;SDS011;6394;52.488;13.386;2022-09-16T03:44:28;4.53;;;1.60;;
12658;SDS011;6394;52.488;13.386;2022-09-16T03:46:56;4.77;;;1.70;;
12658;SDS011;6394;52.488;13.386;2022-09-16T03:49:23;4.37;;;2.00;;
12658;SDS011;6394;52.488;13.386;2022-09-16T03:51:50;5.70;;;1.90;;
12658;SDS011;6394;52.488;13.386;2022-09-16T03:54:18;4.47;;;2.10;;
12658;SDS011;6394;52.488;13.386;2022-09-16T03:56:45;3.43;;;2.00;;
12658;SDS011;6394;52.488;13.386;2022-09-16T03:59:14;6.27;;;1.87;;
12658;SDS011;6394;52.488;13.386;2022-09-16T04:01:41;3.10;;;1.90;;
12658;SDS011;6394;52.488;13.386;2022-09-16T04:04:09;3.43;;;2.00;;
12658;SDS011;6394;52.488;13.386;2022-09-16T04:06:37;5.07;;;1.63;;
12658;SDS011;6394;52.488;13.386;2022-09-16T04:09:04;5.80;;;1.97;;
12658;SDS011;6394;52.488;13.386;2022-09-16T04:11:33;5.80;;;2.70;;
12658;SDS011;6394;52.488;13.386;2022-09-16T04:14:00;7.30;;;2.23;;
12658;SDS011;6394;52.488;13.386;2022-09-16T04:16:29;4.67;;;2.33;;
12658;SDS011;6394;52.488;13.386;2022-09-16T04:18:56;6.57;;;2.03;;
12658;SDS011;6394;52.488;13.386;2022-09-16T04:21:23;7.80;;;2.57;;
12658;SDS011;6394;52.488;13.386;2022-09-16T04:23:51;7.43;;;2.63;;
12658;SDS011;6394;52.488;13.386;2022-09-16T04:26:18;3.93;;;1.97;;
12658;SDS011;6394;52.488;13.386;2022-09-16T04:28:46;6.27;;;2.20;;
12658;SDS011;6394;52.488;13.386;2022-09-16T04:31:14;6.00;;;1.93;;
12658;SDS011;6394;52.488;13.386;2022-09-16T04:33:42;4.03;;;2.20;;
12658;SDS011;6394;52.488;13.386;2022-09-16T04:36:10;5.93;;;2.27;;
12658;SDS011;6394;52.488;13.386;2022-09-16T04:38:38;3.13;;;1.90;;
12658;SDS011;6394;52.488;13.386;2022-09-16T04:41:07;5.67;;;2.10;;
12658;SDS011;6394;52.488;13.386;2022-09-16T04:43:34;4.53;;;2.70;;
12658;SDS011;6394;52.488;13.386;2022-09-16T04:46:02;2.40;;;1.30;;
12658;SDS011;6394;52.488;13.386;2022-09-16T04:48:29;6.40;;;2.13;;
12658;SDS011;6394;52.488;13.386;2022-09-16T04:51:02;5.20;;;2.10;;
12658;SDS011;6394;52.488;13.386;2022-09-16T04:53:29;5.83;;;2.50;;
12658;SDS011;6394;52.488;13.386;2022-09-16T04:56:01;5.03;;;1.93;;
12658;SDS011;6394;52.488;13.386;2022-09-16T04:58:29;4.17;;;2.27;;
12658;SDS011;6394;52.488;13.386;2022-09-16T05:01:02;2.20;;;1.30;;
12658;SDS011;6394;52.488;13.386;2022-09-16T05:03:29;6.73;;;2.07;;
12658;SDS011;6394;52.488;13.386;2022-09-16T05:06:04;5.33;;;2.10;;
12658;SDS011;6394;52.488;13.386;2022-09-16T05:08:33;4.07;;;1.40;;
12658;SDS011;6394;52.488;13.386;2022-09-16T05:11:05;4.30;;;1.43;;
12658;SDS011;6394;52.488;13.386;2022-09-16T05:13:32;4.60;;;1.40;;
12658;SDS011;6394;52.488;13.386;2022-09-16T05:16:01;5.73;;;2.10;;
12658;SDS011;6394;52.488;13.386;2022-09-16T05:18:28;5.70;;;1.53;;
12658;SDS011;6394;52.488;13.386;2022-09-16T05:20:56;4.73;;;1.33;;
12658;SDS011;6394;52.488;13.386;2022-09-16T05:23:25;2.77;;;1.67;;
12658;SDS011;6394;52.488;13.386;2022-09-16T05:25:52;2.37;;;1.30;;
12658;SDS011;6394;52.488;13.386;2022-09-16T05:28:19;5.73;;;1.80;;
12658;SDS011;6394;52.488;13.386;2022-09-16T05:30:46;4.30;;;1.53;;
12658;SDS011;6394;52.488;13.386;2022-09-16T05:33:14;5.93;;;1.70;;
12658;SDS011;6394;52.488;13.386;2022-09-16T05:35:41;5.97;;;1.67;;
12658;SDS011;6394;52.488;13.386;2022-09-16T05:38:10;3.37;;;1.53;;
12658;SDS011;6394;52.488;13.386;2022-09-16T05:40:38;5.43;;;1.83;;
12658;SDS011;6394;52.488;13.386;2022-09-16T05:43:05;4.73;;;1.60;;
12658;SDS011;6394;52.488;13.386;2022-09-16T05:45:33;8.63;;;1.67;;
12658;SDS011;6394;52.488;13.386;2022-09-16T05:48:00;2.33;;;0.87;;
12658;SDS011;6394;52.488;13.386;2022-09-16T05:50:27;4.67;;;1.00;;
12658;SDS011;6394;52.488;13.386;2022-09-16T05:52:55;3.03;;;1.43;;
12658;SDS011;6394;52.488;13.386;2022-09-16T05:55:22;2.67;;;1.03;;
12658;SDS011;6394;52.488;13.386;2022-09-16T05:57:52;4.37;;;1.37;;
12658;SDS011;6394;52.488;13.386;2022-09-16T06:00:19;7.27;;;2.00;;
12658;SDS011;6394;52.488;13.386;2022-09-16T06:02:47;2.47;;;1.00;;
12658;SDS011;6394;52.488;13.386;2022-09-16T06:05:14;4.23;;;1.30;;
12658;SDS011;6394;52.488;13.386;2022-09-16T06:07:41;4.33;;;1.23;;
12658;SDS011;6394;52.488;13.386;2022-09-16T06:10:08;4.77;;;1.07;;
12658;SDS011;6394;52.488;13.386;2022-09-16T06:12:36;5.87;;;1.57;;
12658;SDS011;6394;52.488;13.386;2022-09-16T06:15:05;5.30;;;1.07;;
12658;SDS011;6394;52.488;13.386;2022-09-16T06:17:32;6.67;;;1.27;;
12658;SDS011;6394;52.488;13.386;2022-09-16T06:20:00;3.60;;;1.27;;
12658;SDS011;6394;52.488;13.386;2022-09-16T06:22:29;4.60;;;1.40;;
12658;SDS011;6394;52.488;13.386;2022-09-16T06:24:56;3.40;;;1.27;;
12658;SDS011;6394;52.488;13.386;2022-09-16T06:27:23;5.37;;;0.93;;
12658;SDS011;6394;52.488;13.386;2022-09-16T06:29:51;2.60;;;1.40;;
12658;SDS011;6394;52.488;13.386;2022-09-16T06:32:19;3.60;;;1.43;;
12658;SDS011;6394;52.488;13.386;2022-09-16T06:34:46;4.03;;;1.37;;
12658;SDS011;6394;52.488;13.386;2022-09-16T06:37:14;4.77;;;1.20;;
12658;SDS011;6394;52.488;13.386;2022-09-16T06:39:41;2.90;;;1.00;;
12658;SDS011;6394;52.488;13.386;2022-09-16T06:42:08;2.13;;;1.07;;
12658;SDS011;6394;52.488;13.386;2022-09-16T06:44:36;3.23;;;1.10;;
12658;SDS011;6394;52.488;13.386;2022-09-16T06:47:03;4.40;;;1.37;;
12658;SDS011;6394;52.488;13.386;2022-09-16T06:49:31;6.10;;;1.50;;
12658;SDS011;6394;52.488;13.386;2022-09-16T06:51:59;2.40;;;0.93;;
12658;SDS011;6394;52.488;13.386;2022-09-16T06:54:26;6.17;;;2.20;;
12658;SDS011;6394;52.488;13.386;2022-09-16T06:56:53;6.03;;;1.93;;
12658;SDS011;6394;52.488;13.386;2022-09-16T06:59:20;8.40;;;1.50;;
12658;SDS011;6394;52.488;13.386;2022-09-16T07:01:48;3.70;;;1.10;;
12658;SDS011;6394;52.488;13.386;2022-09-16T07:04:16;10.87;;;1.97;;
12658;SDS011;6394;52.488;13.386;2022-09-16T07:06:45;3.33;;;1.43;;
12658;SDS011;6394;52.488;13.386;2022-09-16T07:09:14;2.57;;;1.20;;
12658;SDS011;6394;52.488;13.386;2022-09-16T07:11:41;4.50;;;1.43;;
12658;SDS011;6394;52.488;13.386;2022-09-16T07:14:09;3.07;;;1.17;;
12658;SDS011;6394;52.488;13.386;2022-09-16T07:16:36;6.17;;;1.40;;
12658;SDS011;6394;52.488;13.386;2022-09-16T07:19:03;2.00;;;1.17;;
12658;SDS011;6394;52.488;13.386;2022-09-16T07:21:31;4.20;;;1.33;;
12658;SDS011;6394;52.488;13.386;2022-09-16T07:24:00;2.53;;;0.97;;
12658;SDS011;6394;52.488;13.386;2022-09-16T07:26:29;2.93;;;0.97;;
12658;SDS011;6394;52.488;13.386;2022-09-16T07:28:57;6.27;;;1.40;;
12658;SDS011;6394;52.488;13.386;2022-09-16T07:31:27;2.13;;;1.10;;
12658;SDS011;6394;52.488;13.386;2022-09-16T07:33:56;4.33;;;1.50;;
12658;SDS011;6394;52.488;13.386;2022-09-16T07:36:26;7.07;;;1.70;;
12658;SDS011;6394;52.488;13.386;2022-09-16T07:38:54;4.47;;;1.30;;
12658;SDS011;6394;52.488;13.386;2022-09-16T07:41:25;2.20;;;0.90;;
12658;SDS011;6394;52.488;13.386;2022-09-16T07:43:53;3.80;;;1.13;;
12658;SDS011;6394;52.488;13.386;2022-09-16T07:46:23;3.47;;;1.17;;
12658;SDS011;6394;52.488;13.386;2022-09-16T07:48:50;1.37;;;0.60;;
12658;SDS011;6394;52.488;13.386;2022-09-16T07:51:19;5.00;;;0.90;;
12658;SDS011;6394;52.488;13.386;2022-09-16T07:53:51;2.87;;;0.80;;
12658;SDS011;6394;52.488;13.386;2022-09-16T07:56:20;4.73;;;0.90;;
12658;SDS011;6394;52.488;13.386;2022-09-16T07:58:52;1.87;;;0.60;;
12658;SDS011;6394;52.488;13.386;2022-09-16T08:01:24;3.30;;;0.87;;
12658;SDS011;6394;52.488;13.386;2022-09-16T08:03:52;4.37;;;0.80;;
12658;SDS011;6394;52.488;13.386;2022-09-16T08:06:20;3.53;;;0.83;;
12658;SDS011;6394;52.488;13.386;2022-09-16T08:08:47;1.33;;;0.60;;
12658;SDS011;6394;52.488;13.386;2022-09-16T08:11:17;1.60;;;0.50;;
12658;SDS011;6394;52.488;13.386;2022-09-16T08:13:47;4.67;;;0.60;;
12658;SDS011;6394;52.488;13.386;2022-09-16T08:16:17;1.33;;;0.50;;
12658;SDS011;6394;52.488;13.386;2022-09-16T08:18:45;6.30;;;0.67;;
12658;SDS011;6394;52.488;13.386;2022-09-16T08:21:14;5.93;;;0.70;;
12658;SDS011;6394;52.488;13.386;2022-09-16T08:23:43;2.60;;;0.57;;
12658;SDS011;6394;52.488;13.386;2022-09-16T08:26:11;2.13;;;0.80;;
12658;SDS011;6394;52.488;13.386;2022-09-16T08:28:40;1.93;;;0.60;;
12658;SDS011;6394;52.488;13.386;2022-09-16T08:31:09;2.97;;;0.60;;
12658;SDS011;6394;52.488;13.386;2022-09-16T08:33:39;2.93;;;0.60;;
12658;SDS011;6394;52.488;13.386;2022-09-16T08:36:09;3.90;;;0.83;;
12658;SDS011;6394;52.488;13.386;2022-09-16T08:38:39;2.87;;;0.60;;
12658;SDS011;6394;52.488;13.386;2022-09-16T08:44:08;2.97;;;1.00;;
12658;SDS011;6394;52.488;13.386;2022-09-16T08:46:41;2.13;;;0.60;;
12658;SDS011;6394;52.488;13.386;2022-09-16T08:49:15;1.07;;;0.47;;
12658;SDS011;6394;52.488;13.386;2022-09-16T08:51:43;3.40;;;0.67;;
12658;SDS011;6394;52.488;13.386;2022-09-16T08:54:14;2.70;;;0.60;;
12658;SDS011;6394;52.488;13.386;2022-09-16T08:56:45;3.00;;;0.77;;
12658;SDS011;6394;52.488;13.386;2022-09-16T08:59:18;3.70;;;0.77;;
12658;SDS011;6394;52.488;13.386;2022-09-16T09:01:48;3.43;;;0.80;;
12658;SDS011;6394;52.488;13.386;2022-09-16T09:04:18;1.73;;;0.60;;
12658;SDS011;6394;52.488;13.386;2022-09-16T09:06:49;1.87;;;0.60;;
12658;SDS011;6394;52.488;13.386;2022-09-16T09:09:22;4.87;;;0.60;;
12658;SDS011;6394;52.488;13.386;2022-09-16T09:11:54;4.03;;;0.57;;
12658;SDS011;6394;52.488;13.386;2022-09-16T09:14:33;2.33;;;0.77;;
12658;SDS011;6394;52.488;13.386;2022-09-16T09:17:06;4.00;;;0.70;;
12658;SDS011;6394;52.488;13.386;2022-09-16T09:19:40;4.63;;;0.70;;
12658;SDS011;6394;52.488;13.386;2022-09-16T09:22:12;2.60;;;0.70;;
12658;SDS011;6394;52.488;13.386;2022-09-16T09:24:50;6.63;;;0.83;;
12658;SDS011;6394;52.488;13.386;2022-09-16T09:27:22;3.03;;;0.57;;
12658;SDS011;6394;52.488;13.386;2022-09-16T09:30:00;1.17;;;0.60;;
12658;SDS011;6394;52.488;13.386;2022-09-16T09:32:32;4.37;;;0.60;;
12658;SDS011;6394;52.488;13.386;2022-09-16T09:35:14;5.27;;;0.60;;
12658;SDS011;6394;52.488;13.386;2022-09-16T09:37:49;3.37;;;0.70;;
12658;SDS011;6394;52.488;13.386;2022-09-16T09:40:22;3.87;;;0.70;;
12658;SDS011;6394;52.488;13.386;2022-09-16T09:42:55;2.27;;;0.80;;
12658;SDS011;6394;52.488;13.386;2022-09-16T09:45:30;3.93;;;0.63;;
12658;SDS011;6394;52.488;13.386;2022-09-16T09:47:59;5.13;;;0.63;;
12658;SDS011;6394;52.488;13.386;2022-09-16T09:50:31;3.53;;;0.67;;
12658;SDS011;6394;52.488;13.386;2022-09-16T09:53:01;3.00;;;0.47;;
12658;SDS011;6394;52.488;13.386;2022-09-16T09:55:32;5.30;;;0.90;;
12658;SDS011;6394;52.488;13.386;2022-09-16T09:58:03;4.27;;;0.60;;
12658;SDS011;6394;52.488;13.386;2022-09-16T10:00:31;6.80;;;0.90;;
12658;SDS011;6394;52.488;13.386;2022-09-16T10:03:03;3.57;;;0.60;;
12658;SDS011;6394;52.488;13.386;2022-09-16T10:08:08;3.27;;;0.70;;
12658;SDS011;6394;52.488;13.386;2022-09-16T10:10:48;3.87;;;0.73;;
12658;SDS011;6394;52.488;13.386;2022-09-16T10:13:16;6.93;;;1.10;;
12658;SDS011;6394;52.488;13.386;2022-09-16T10:15:44;6.67;;;1.07;;
12658;SDS011;6394;52.488;13.386;2022-09-16T10:18:12;3.43;;;0.80;;
12658;SDS011;6394;52.488;13.386;2022-09-16T10:20:41;5.47;;;0.97;;
12658;SDS011;6394;52.488;13.386;2022-09-16T10:23:10;4.33;;;0.60;;
12658;SDS011;6394;52.488;13.386;2022-09-16T10:25:39;4.77;;;0.90;;
12658;SDS011;6394;52.488;13.386;2022-09-16T10:28:17;3.07;;;0.33;;
12658;SDS011;6394;52.488;13.386;2022-09-16T10:30:46;3.73;;;0.67;;
12658;SDS011;6394;52.488;13.386;2022-09-16T10:33:16;3.70;;;0.93;;
12658;SDS011;6394;52.488;13.386;2022-09-16T10:35:50;3.13;;;0.50;;
12658;SDS011;6394;52.488;13.386;2022-09-16T10:38:21;3.83;;;1.03;;
12658;SDS011;6394;52.488;13.386;2022-09-16T10:40:52;3.77;;;0.40;;
12658;SDS011;6394;52.488;13.386;2022-09-16T10:43:20;3.93;;;0.80;;
12658;SDS011;6394;52.488;13.386;2022-09-16T10:45:48;4.73;;;0.50;;
12658;SDS011;6394;52.488;13.386;2022-09-16T10:48:17;3.00;;;0.60;;
12658;SDS011;6394;52.488;13.386;2022-09-16T10:50:52;4.60;;;0.70;;
12658;SDS011;6394;52.488;13.386;2022-09-16T10:53:22;5.83;;;0.53;;
12658;SDS011;6394;52.488;13.386;2022-09-16T10:55:55;4.60;;;0.60;;
12658;SDS011;6394;52.488;13.386;2022-09-16T10:58:23;5.13;;;0.67;;
12658;SDS011;6394;52.488;13.386;2022-09-16T11:00:53;3.30;;;0.70;;
12658;SDS011;6394;52.488;13.386;2022-09-16T11:03:29;2.67;;;0.50;;
12658;SDS011;6394;52.488;13.386;2022-09-16T11:06:05;2.20;;;0.40;;
12658;SDS011;6394;52.488;13.386;2022-09-16T11:08:40;5.07;;;0.80;;
12658;SDS011;6394;52.488;13.386;2022-09-16T11:11:12;1.50;;;0.53;;
12658;SDS011;6394;52.488;13.386;2022-09-16T11:13:43;3.97;;;0.50;;
12658;SDS011;6394;52.488;13.386;2022-09-16T11:16:17;5.50;;;1.17;;
12658;SDS011;6394;52.488;13.386;2022-09-16T11:18:51;2.17;;;0.63;;
12658;SDS011;6394;52.488;13.386;2022-09-16T11:21:26;5.70;;;1.00;;
12658;SDS011;6394;52.488;13.386;2022-09-16T11:24:05;2.00;;;0.70;;
12658;SDS011;6394;52.488;13.386;2022-09-16T11:26:37;4.23;;;1.00;;
12658;SDS011;6394;52.488;13.386;2022-09-16T11:29:15;4.53;;;0.83;;
12658;SDS011;6394;52.488;13.386;2022-09-16T11:31:48;2.33;;;0.63;;
12658;SDS011;6394;52.488;13.386;2022-09-16T11:34:26;3.33;;;0.30;;
12658;SDS011;6394;52.488;13.386;2022-09-16T11:37:00;2.93;;;0.40;;
12658;SDS011;6394;52.488;13.386;2022-09-16T11:39:36;4.87;;;0.90;;
12658;SDS011;6394;52.488;13.386;2022-09-16T11:42:07;3.60;;;0.67;;
12658;SDS011;6394;52.488;13.386;2022-09-16T11:44:38;3.20;;;0.40;;
12658;SDS011;6394;52.488;13.386;2022-09-16T11:47:18;4.17;;;0.60;;
12658;SDS011;6394;52.488;13.386;2022-09-16T11:50:01;2.70;;;0.67;;
12658;SDS011;6394;52.488;13.386;2022-09-16T11:52:39;2.10;;;0.47;;
12658;SDS011;6394;52.488;13.386;2022-09-16T11:55:26;8.10;;;0.80;;
12658;SDS011;6394;52.488;13.386;2022-09-16T11:57:57;4.83;;;0.50;;
12658;SDS011;6394;52.488;13.386;2022-09-16T12:00:25;3.50;;;0.50;;
12658;SDS011;6394;52.488;13.386;2022-09-16T12:02:56;3.73;;;0.77;;
12658;SDS011;6394;52.488;13.386;2022-09-16T12:05:26;2.87;;;0.50;;
12658;SDS011;6394;52.488;13.386;2022-09-16T12:07:56;4.60;;;0.77;;
12658;SDS011;6394;52.488;13.386;2022-09-16T12:10:32;5.60;;;0.70;;
12658;SDS011;6394;52.488;13.386;2022-09-16T12:13:03;1.90;;;0.40;;
12658;SDS011;6394;52.488;13.386;2022-09-16T12:15:34;4.03;;;0.70;;
12658;SDS011;6394;52.488;13.386;2022-09-16T12:18:07;2.77;;;0.70;;
12658;SDS011;6394;52.488;13.386;2022-09-16T12:20:36;3.33;;;0.80;;
12658;SDS011;6394;52.488;13.386;2022-09-16T12:23:05;3.40;;;0.67;;
12658;SDS011;6394;52.488;13.386;2022-09-16T12:25:38;2.20;;;0.57;;
12658;SDS011;6394;52.488;13.386;2022-09-16T12:28:10;2.30;;;0.53;;
12658;SDS011;6394;52.488;13.386;2022-09-16T12:30:40;2.70;;;0.80;;
12658;SDS011;6394;52.488;13.386;2022-09-16T12:33:09;2.20;;;0.40;;
12658;SDS011;6394;52.488;13.386;2022-09-16T12:35:43;2.10;;;0.40;;
12658;SDS011;6394;52.488;13.386;2022-09-16T12:38:13;4.60;;;0.60;;
12658;SDS011;6394;52.488;13.386;2022-09-16T12:40:48;2.53;;;0.63;;
12658;SDS011;6394;52.488;13.386;2022-09-16T12:43:25;3.83;;;0.80;;
12658;SDS011;6394;52.488;13.386;2022-09-16T12:48:47;4.03;;;0.90;;
12658;SDS011;6394;52.488;13.386;2022-09-16T12:51:29;3.53;;;1.00;;
12658;SDS011;6394;52.488;13.386;2022-09-16T12:54:04;4.90;;;0.70;;
12658;SDS011;6394;52.488;13.386;2022-09-16T12:59:26;4.43;;;0.93;;
12658;SDS011;6394;52.488;13.386;2022-09-16T13:01:57;3.40;;;0.50;;
12658;SDS011;6394;52.488;13.386;2022-09-16T13:04:26;2.60;;;0.50;;
12658;SDS011;6394;52.488;13.386;2022-09-16T13:06:55;4.83;;;0.60;;
12658;SDS011;6394;52.488;13.386;2022-09-16T13:09:24;2.80;;;0.70;;
12658;SDS011;6394;52.488;13.386;2022-09-16T13:11:55;1.83;;;0.50;;
12658;SDS011;6394;52.488;13.386;2022-09-16T13:14:26;1.63;;;0.50;;
12658;SDS011;6394;52.488;13.386;2022-09-16T13:16:55;1.43;;;0.30;;
12658;SDS011;6394;52.488;13.386;2022-09-16T13:19:30;2.43;;;0.50;;
12658;SDS011;6394;52.488;13.386;2022-09-16T13:22:10;5.47;;;0.50;;
12658;SDS011;6394;52.488;13.386;2022-09-16T13:24:40;2.27;;;0.40;;
12658;SDS011;6394;52.488;13.386;2022-09-16T13:27:22;4.87;;;0.63;;
12658;SDS011;6394;52.488;13.386;2022-09-16T13:29:51;4.03;;;0.77;;
12658;SDS011;6394;52.488;13.386;2022-09-16T13:32:25;7.13;;;0.60;;
12658;SDS011;6394;52.488;13.386;2022-09-16T13:34:59;4.33;;;0.50;;
12658;SDS011;6394;52.488;13.386;2022-09-16T13:37:28;1.90;;;0.60;;
12658;SDS011;6394;52.488;13.386;2022-09-16T13:39:55;3.10;;;0.60;;
12658;SDS011;6394;52.488;13.386;2022-09-16T13:45:00;1.47;;;0.33;;
12658;SDS011;6394;52.488;13.386;2022-09-16T13:47:29;2.60;;;0.60;;
12658;SDS011;6394;52.488;13.386;2022-09-16T13:49:59;2.17;;;0.70;;
12658;SDS011;6394;52.488;13.386;2022-09-16T13:52:28;3.63;;;0.50;;
12658;SDS011;6394;52.488;13.386;2022-09-16T13:54:56;3.17;;;0.80;;
12658;SDS011;6394;52.488;13.386;2022-09-16T13:57:29;2.93;;;0.70;;
12658;SDS011;6394;52.488;13.386;2022-09-16T14:02:46;2.30;;;0.60;;
12658;SDS011;6394;52.488;13.386;2022-09-16T14:05:22;1.87;;;0.53;;
12658;SDS011;6394;52.488;13.386;2022-09-16T14:07:54;1.87;;;0.70;;
12658;SDS011;6394;52.488;13.386;2022-09-16T14:10:24;1.90;;;0.60;;
12658;SDS011;6394;52.488;13.386;2022-09-16T14:12:56;3.73;;;0.70;;
12658;SDS011;6394;52.488;13.386;2022-09-16T14:15:26;2.30;;;0.67;;
12658;SDS011;6394;52.488;13.386;2022-09-16T14:17:56;2.53;;;0.50;;
12658;SDS011;6394;52.488;13.386;2022-09-16T14:20:25;0.97;;;0.37;;
12658;SDS011;6394;52.488;13.386;2022-09-16T14:22:59;1.80;;;0.47;;
12658;SDS011;6394;52.488;13.386;2022-09-16T14:25:28;3.30;;;0.63;;
12658;SDS011;6394;52.488;13.386;2022-09-16T14:28:06;3.00;;;0.43;;
12658;SDS011;6394;52.488;13.386;2022-09-16T14:30:34;1.03;;;0.30;;
12658;SDS011;6394;52.488;13.386;2022-09-16T14:33:02;1.93;;;0.30;;
12658;SDS011;6394;52.488;13.386;2022-09-16T14:35:32;2.73;;;0.40;;
12658;SDS011;6394;52.488;13.386;2022-09-16T14:38:00;3.97;;;0.60;;
12658;SDS011;6394;52.488;13.386;2022-09-16T14:40:28;3.20;;;0.60;;
12658;SDS011;6394;52.488;13.386;2022-09-16T14:42:56;4.83;;;0.30;;
12658;SDS011;6394;52.488;13.386;2022-09-16T14:45:24;6.17;;;0.73;;
12658;SDS011;6394;52.488;13.386;2022-09-16T14:47:52;4.53;;;0.60;;
12658;SDS011;6394;52.488;13.386;2022-09-16T14:50:22;2.53;;;0.50;;
12658;SDS011;6394;52.488;13.386;2022-09-16T14:52:51;3.20;;;0.57;;
12658;SDS011;6394;52.488;13.386;2022-09-16T14:55:20;2.00;;;0.40;;
12658;SDS011;6394;52.488;13.386;2022-09-16T14:57:47;3.13;;;0.40;;
12658;SDS011;6394;52.488;13.386;2022-09-16T15:00:16;5.10;;;0.80;;
12658;SDS011;6394;52.488;13.386;2022-09-16T15:02:45;2.30;;;0.40;;
12658;SDS011;6394;52.488;13.386;2022-09-16T15:05:16;3.43;;;0.47;;
12658;SDS011;6394;52.488;13.386;2022-09-16T15:07:46;2.53;;;0.60;;
12658;SDS011;6394;52.488;13.386;2022-09-16T15:10:17;4.17;;;0.43;;
12658;SDS011;6394;52.488;13.386;2022-09-16T15:12:47;3.20;;;0.40;;
12658;SDS011;6394;52.488;13.386;2022-09-16T15:15:16;3.90;;;0.70;;
12658;SDS011;6394;52.488;13.386;2022-09-16T15:17:43;4.10;;;0.40;;
12658;SDS011;6394;52.488;13.386;2022-09-16T15:20:17;3.47;;;0.80;;
12658;SDS011;6394;52.488;13.386;2022-09-16T15:22:47;3.37;;;0.63;;
12658;SDS011;6394;52.488;13.386;2022-09-16T15:25:18;3.23;;;0.57;;